createdAt,value
2024-03-06T00:00:24.017Z,4.54
2024-03-06T00:03:27.631Z,4.67
2024-03-06T00:06:31.635Z,4.46
2024-03-06T00:09:36.057Z,4.42
2024-03-06T00:12:38.961Z,4.47
2024-03-06T00:15:43.341Z,4.49
2024-03-06T00:18:46.548Z,4.47
2024-03-06T00:21:49.654Z,4.47
2024-03-06T00:24:53.332Z,4.52
2024-03-06T00:27:56.385Z,4.53
2024-03-06T00:30:59.876Z,4.59
2024-03-06T00:34:03.030Z,4.56
2024-03-06T00:37:05.817Z,4.41
2024-03-06T00:40:12.312Z,4.08
2024-03-06T00:43:15.759Z,4.00
2024-03-06T00:46:18.885Z,4.22
2024-03-06T00:49:22.735Z,4.23
2024-03-06T00:52:27.005Z,4.10
2024-03-06T00:55:29.972Z,3.98
2024-03-06T00:58:33.397Z,3.94
2024-03-06T01:01:36.479Z,3.99
2024-03-06T01:04:39.888Z,3.94
2024-03-06T01:07:42.709Z,3.86
2024-03-06T01:10:46.384Z,3.90
2024-03-06T01:13:49.506Z,3.89
2024-03-06T01:16:53.119Z,3.91
2024-03-06T01:19:57.744Z,3.83
2024-03-06T01:23:00.950Z,3.90
2024-03-06T01:26:04.039Z,3.91
2024-03-06T01:29:07.395Z,3.66
2024-03-06T01:32:11.731Z,3.65
2024-03-06T01:35:16.301Z,3.68
2024-03-06T01:38:19.993Z,3.72
2024-03-06T01:41:23.300Z,3.68
2024-03-06T01:44:26.066Z,3.57
2024-03-06T01:47:30.138Z,3.57
2024-03-06T01:50:33.111Z,3.70
2024-03-06T01:53:37.564Z,3.79
2024-03-06T01:56:47.366Z,3.61
2024-03-06T01:59:50.780Z,3.63
2024-03-06T02:02:53.821Z,3.41
2024-03-06T02:06:00.059Z,3.24
2024-03-06T02:09:05.136Z,3.27
2024-03-06T02:12:13.753Z,3.41
2024-03-06T02:15:17.508Z,3.34
2024-03-06T02:18:21.594Z,3.35
2024-03-06T02:21:26.001Z,3.44
2024-03-06T02:24:29.101Z,3.48
2024-03-06T02:27:32.912Z,3.40
2024-03-06T02:30:38.775Z,3.25
2024-03-06T02:33:42.692Z,3.12
2024-03-06T02:36:46.158Z,3.16
2024-03-06T02:39:49.214Z,3.11
2024-03-06T02:42:52.593Z,3.01
2024-03-06T02:45:55.391Z,2.97
2024-03-06T02:48:58.657Z,3.08
2024-03-06T02:52:03.124Z,3.07
2024-03-06T02:55:06.763Z,3.12
2024-03-06T02:58:11.498Z,2.92
2024-03-06T03:01:17.597Z,2.93
2024-03-06T03:04:20.534Z,2.93
2024-03-06T03:07:27.194Z,2.97
2024-03-06T03:10:30.416Z,2.87
2024-03-06T03:13:33.731Z,2.93
2024-03-06T03:16:37.387Z,3.07
2024-03-06T03:19:41.636Z,3.05
2024-03-06T03:22:45.263Z,3.03
2024-03-06T03:25:48.791Z,3.08
2024-03-06T03:28:52.087Z,3.09
2024-03-06T03:31:55.167Z,2.94
2024-03-06T03:34:58.031Z,2.88
2024-03-06T03:38:01.220Z,3.08
2024-03-06T03:41:05.423Z,3.23
2024-03-06T03:44:09.046Z,3.18
2024-03-06T03:47:12.234Z,2.80
2024-03-06T03:50:17.468Z,2.79
2024-03-06T03:53:20.701Z,2.88
2024-03-06T03:56:23.978Z,2.87
2024-03-06T03:59:27.248Z,2.84
2024-03-06T04:02:30.358Z,2.78
2024-03-06T04:05:33.468Z,2.93
2024-03-06T04:08:39.086Z,2.87
2024-03-06T04:11:42.361Z,2.85
2024-03-06T04:14:46.019Z,2.72
2024-03-06T04:17:49.210Z,2.97
2024-03-06T04:20:52.117Z,2.90
2024-03-06T04:23:55.921Z,2.82
2024-03-06T04:26:58.647Z,2.97
2024-03-06T04:30:02.092Z,2.80
2024-03-06T04:33:07.915Z,2.79
2024-03-06T04:36:11.772Z,2.80
2024-03-06T04:39:14.936Z,2.77
2024-03-06T04:42:18.850Z,2.94
2024-03-06T04:45:21.973Z,3.00
2024-03-06T04:48:25.150Z,2.82
2024-03-06T04:51:28.021Z,2.76
2024-03-06T04:54:31.316Z,2.80
2024-03-06T04:57:37.017Z,2.72
2024-03-06T05:00:40.789Z,2.66
2024-03-06T06:00:42.457Z,2.86
2024-03-06T06:03:46.167Z,2.97
2024-03-06T06:06:49.848Z,3.09
2024-03-06T06:09:53.126Z,3.17
2024-03-06T06:12:56.100Z,3.26
2024-03-06T06:16:05.879Z,3.38
2024-03-06T06:19:08.901Z,3.55
2024-03-06T06:22:13.810Z,3.48
2024-03-06T06:25:17.535Z,3.69
2024-03-06T06:28:20.801Z,3.75
2024-03-06T06:31:23.789Z,3.93
2024-03-06T06:34:29.875Z,4.11
2024-03-06T06:37:32.862Z,4.20
2024-03-06T06:40:35.926Z,4.26
2024-03-06T06:43:38.716Z,4.50
2024-03-06T06:46:44.176Z,4.54
2024-03-06T06:49:47.220Z,4.73
2024-03-06T06:52:51.455Z,4.54
2024-03-06T06:55:54.224Z,4.93
2024-03-06T06:58:58.912Z,4.66
2024-03-06T07:02:03.761Z,4.69
2024-03-06T07:05:07.978Z,4.86
2024-03-06T07:08:11.352Z,5.06
2024-03-06T07:11:14.922Z,5.04
2024-03-06T07:14:17.834Z,5.02
2024-03-06T07:17:21.186Z,5.17
2024-03-06T07:20:24.267Z,5.51
2024-03-06T07:23:27.559Z,5.49
2024-03-06T07:26:31.493Z,5.67
2024-03-06T07:29:35.594Z,5.80
2024-03-06T07:32:38.680Z,5.95
2024-03-06T07:35:43.093Z,6.22
2024-03-06T07:38:46.050Z,5.92
2024-03-06T07:41:49.406Z,5.90
2024-03-06T07:44:53.786Z,6.12
2024-03-06T07:47:59.441Z,6.78
2024-03-06T07:51:02.540Z,6.85
2024-03-06T07:54:06.464Z,7.34
2024-03-06T07:57:11.238Z,7.61
2024-03-06T08:00:21.193Z,8.37
2024-03-06T08:03:25.943Z,10.00
2024-03-06T08:06:30.780Z,10.21
2024-03-06T08:09:34.356Z,9.83
2024-03-06T08:12:37.774Z,9.99
2024-03-06T08:15:41.418Z,10.35
2024-03-06T08:18:44.266Z,10.65
2024-03-06T08:21:47.592Z,10.13
2024-03-06T08:24:53.160Z,10.66
2024-03-06T08:27:56.604Z,11.17
2024-03-06T08:30:59.716Z,12.00
2024-03-06T08:34:03.200Z,13.03
2024-03-06T08:37:07.161Z,13.26
2024-03-06T08:40:16.776Z,13.68
2024-03-06T08:43:20.861Z,14.30
2024-03-06T08:46:25.310Z,14.90
2024-03-06T08:49:28.422Z,15.11
2024-03-06T08:52:34.528Z,15.72
2024-03-06T08:55:37.577Z,15.79
2024-03-06T08:58:41.585Z,15.69
2024-03-06T09:01:44.724Z,15.14
2024-03-06T09:04:48.706Z,14.91
2024-03-06T09:07:51.898Z,14.96
2024-03-06T09:10:55.767Z,15.36
2024-03-06T09:13:58.980Z,15.03
2024-03-06T09:17:02.764Z,14.96
2024-03-06T09:20:12.139Z,14.77
2024-03-06T09:23:17.565Z,14.43
2024-03-06T09:26:21.897Z,14.57
2024-03-06T09:29:25.373Z,14.81
2024-03-06T09:32:28.428Z,14.66
2024-03-06T09:35:34.234Z,14.26
2024-03-06T09:38:38.960Z,14.79
2024-03-06T09:41:42.617Z,15.24
2024-03-06T09:44:46.363Z,15.94
2024-03-06T09:47:54.664Z,15.90
2024-03-06T09:51:04.759Z,16.24
2024-03-06T09:54:10.964Z,16.35
2024-03-06T09:57:15.166Z,17.25
2024-03-06T10:00:21.147Z,17.39
2024-03-06T10:03:24.742Z,17.67
2024-03-06T10:06:28.227Z,17.84
2024-03-06T10:09:34.642Z,18.11
2024-03-06T10:12:37.991Z,17.28
2024-03-06T10:15:41.415Z,17.73
2024-03-06T10:18:44.371Z,17.86
2024-03-06T10:21:52.834Z,18.17
2024-03-06T10:24:58.598Z,18.48
2024-03-06T10:28:13.228Z,19.10
2024-03-06T10:31:16.112Z,19.48
2024-03-06T10:34:19.492Z,19.58
2024-03-06T10:37:23.646Z,18.29
2024-03-06T10:40:30.742Z,18.73
2024-03-06T10:43:33.949Z,18.85
2024-03-06T10:46:38.554Z,19.86
2024-03-06T10:49:44.190Z,19.84
2024-03-06T10:52:48.698Z,20.33
2024-03-06T10:55:53.081Z,20.37
2024-03-06T10:58:59.484Z,20.02
2024-03-06T11:02:03.406Z,19.58
2024-03-06T11:05:08.579Z,20.22
2024-03-06T11:08:16.718Z,20.15
2024-03-06T11:11:26.983Z,20.28
2024-03-06T11:14:32.887Z,19.68
2024-03-06T11:17:36.275Z,19.68
2024-03-06T11:20:39.078Z,19.30
2024-03-06T11:24:13.219Z,19.87
2024-03-06T11:27:16.581Z,19.51
2024-03-06T11:30:22.647Z,19.93
2024-03-06T11:33:29.871Z,20.13
2024-03-06T11:36:35.707Z,20.69
2024-03-06T11:39:40.825Z,20.12
2024-03-06T11:42:43.897Z,19.54
2024-03-06T11:45:47.832Z,19.96
2024-03-06T11:48:57.593Z,18.85
2024-03-06T11:52:06.315Z,18.29
2024-03-06T11:55:10.649Z,17.83
2024-03-06T11:58:13.916Z,17.56
2024-03-06T12:01:20.130Z,18.06
2024-03-06T12:04:25.501Z,18.49
2024-03-06T12:07:28.961Z,18.76
2024-03-06T12:10:32.110Z,19.29
2024-03-06T12:13:36.279Z,19.24
2024-03-06T12:16:39.465Z,19.60
2024-03-06T12:19:45.282Z,19.96
2024-03-06T12:22:53.129Z,20.60
2024-03-06T12:26:12.881Z,21.14
2024-03-06T12:29:20.665Z,20.72
2024-03-06T12:32:28.357Z,19.23
2024-03-06T12:35:32.238Z,18.02
2024-03-06T12:38:35.346Z,17.81
2024-03-06T12:41:39.197Z,17.38
2024-03-06T12:44:42.374Z,19.11
2024-03-06T12:47:50.039Z,19.59
2024-03-06T12:50:55.569Z,19.73
2024-03-06T12:53:58.749Z,20.56
2024-03-06T12:57:01.734Z,21.79
2024-03-06T13:00:08.252Z,21.29
2024-03-06T13:03:11.850Z,20.50
2024-03-06T13:06:15.198Z,19.68
2024-03-06T13:09:18.576Z,19.14
2024-03-06T13:12:21.955Z,18.53
2024-03-06T13:15:24.830Z,18.18
2024-03-06T13:18:28.484Z,18.04
2024-03-06T13:21:31.409Z,17.76
2024-03-06T13:24:35.118Z,18.23
2024-03-06T13:27:38.394Z,17.00
2024-03-06T13:30:41.580Z,16.27
2024-03-06T13:33:44.650Z,16.00
2024-03-06T13:36:48.273Z,15.54
2024-03-06T13:39:51.938Z,14.96
2024-03-06T13:42:55.343Z,14.94
2024-03-06T13:45:58.829Z,15.01
2024-03-06T13:49:02.166Z,14.82
2024-03-06T13:52:06.644Z,14.78
2024-03-06T13:55:10.644Z,14.82
2024-03-06T13:58:14.042Z,14.59
2024-03-06T14:01:17.468Z,14.77
2024-03-06T14:04:21.008Z,14.60
2024-03-06T14:07:24.548Z,14.87
2024-03-06T14:10:28.116Z,14.85
2024-03-06T14:13:31.004Z,14.82
2024-03-06T14:16:34.321Z,14.75
2024-03-06T14:19:37.310Z,14.95
2024-03-06T14:22:40.413Z,14.97
2024-03-06T14:25:43.496Z,14.92
2024-03-06T14:28:46.563Z,14.83
2024-03-06T14:31:49.387Z,14.66
2024-03-06T14:34:52.681Z,14.71
2024-03-06T14:37:55.748Z,14.97
2024-03-06T14:40:58.952Z,15.03
2024-03-06T14:44:01.990Z,14.88
2024-03-06T14:47:07.477Z,15.02
2024-03-06T14:50:13.478Z,14.97
2024-03-06T14:53:17.182Z,14.79
2024-03-06T14:56:23.084Z,14.65
2024-03-06T14:59:26.559Z,14.55
2024-03-06T15:02:30.621Z,14.59
2024-03-06T15:05:34.167Z,14.45
2024-03-06T15:08:37.484Z,14.33
2024-03-06T15:11:41.670Z,14.31
2024-03-06T15:14:47.213Z,14.09
2024-03-06T15:17:53.593Z,13.86
2024-03-06T15:20:56.434Z,13.56
2024-03-06T15:24:00.520Z,13.28
2024-03-06T15:27:05.764Z,13.24
2024-03-06T15:30:09.942Z,13.12
2024-03-06T15:33:13.553Z,12.97
2024-03-06T15:36:17.859Z,12.81
2024-03-06T15:39:20.913Z,12.67
2024-03-06T15:42:25.377Z,12.58
2024-03-06T15:45:28.429Z,12.48
2024-03-06T15:48:33.982Z,12.35
2024-03-06T15:51:38.445Z,12.28
2024-03-06T15:54:41.749Z,12.19
2024-03-06T15:57:45.354Z,12.12
2024-03-06T16:00:48.459Z,12.05
2024-03-06T16:03:53.920Z,11.97
2024-03-06T16:07:00.243Z,11.94
2024-03-06T16:10:04.278Z,11.88
2024-03-06T16:13:08.391Z,11.77
2024-03-06T16:16:11.555Z,11.59
2024-03-06T16:19:14.707Z,11.39
2024-03-06T16:22:18.095Z,11.25
2024-03-06T16:25:21.204Z,11.13
2024-03-06T16:28:25.093Z,11.00
2024-03-06T16:31:28.474Z,10.88
2024-03-06T16:34:34.029Z,10.75
2024-03-06T16:37:37.028Z,10.65
2024-03-06T16:40:40.742Z,10.53
2024-03-06T16:43:43.846Z,10.45
2024-03-06T16:46:46.970Z,10.30
2024-03-06T16:49:50.100Z,10.22
2024-03-06T16:52:53.809Z,10.14
2024-03-06T16:55:56.701Z,10.05
2024-03-06T16:59:00.137Z,10.00
2024-03-06T17:02:03.373Z,9.93
2024-03-06T17:05:08.279Z,9.95
2024-03-06T17:08:13.285Z,9.92
2024-03-06T17:11:18.740Z,9.89
2024-03-06T17:14:21.805Z,9.82
2024-03-06T17:17:25.246Z,9.84
2024-03-06T17:20:28.230Z,9.81
2024-03-06T17:23:33.418Z,9.72
2024-03-06T17:26:39.698Z,9.69
2024-03-06T17:29:43.978Z,9.74
2024-03-06T17:32:46.989Z,9.60
2024-03-06T17:35:50.913Z,9.60
2024-03-06T17:38:54.128Z,9.51
2024-03-06T17:41:57.568Z,9.47
2024-03-06T17:45:01.744Z,9.43
2024-03-06T17:48:05.596Z,9.36
2024-03-06T17:51:08.795Z,9.22
2024-03-06T17:54:16.261Z,9.14
2024-03-06T17:57:19.146Z,9.09
2024-03-06T18:00:22.520Z,9.12
2024-03-06T18:03:27.716Z,9.06
2024-03-06T18:06:30.801Z,8.95
2024-03-06T18:09:34.135Z,8.89
2024-03-06T18:12:37.100Z,8.89
2024-03-06T18:15:41.333Z,8.80
2024-03-06T18:18:44.257Z,8.73
2024-03-06T18:21:48.439Z,8.73
2024-03-06T18:24:51.885Z,8.73
2024-03-06T18:27:55.248Z,8.81
2024-03-06T18:31:00.340Z,8.85
2024-03-06T18:34:04.518Z,8.90
2024-03-06T18:37:08.224Z,8.78
2024-03-06T18:40:14.057Z,8.72
2024-03-06T18:43:17.335Z,8.83
2024-03-06T18:46:20.864Z,8.63
2024-03-06T18:49:23.750Z,8.59
2024-03-06T18:52:26.883Z,8.59
2024-03-06T18:55:30.420Z,8.50
2024-03-06T18:58:34.553Z,8.53
2024-03-06T19:01:40.417Z,8.33
2024-03-06T19:04:44.328Z,8.30
2024-03-06T19:07:48.716Z,8.27
2024-03-06T19:10:53.089Z,8.39
2024-03-06T19:13:56.130Z,8.33
2024-03-06T19:16:59.361Z,8.34
2024-03-06T19:20:02.546Z,8.39
2024-03-06T19:23:07.450Z,8.42
2024-03-06T19:26:10.774Z,8.49
2024-03-06T19:29:14.209Z,8.33
2024-03-06T19:32:17.682Z,8.23
2024-03-06T19:35:23.936Z,7.99
2024-03-06T19:38:28.341Z,7.62
2024-03-06T19:41:31.901Z,7.61
2024-03-06T19:44:35.322Z,7.46
2024-03-06T19:47:40.203Z,7.30
2024-03-06T19:50:43.629Z,7.28
2024-03-06T19:53:49.408Z,7.07
2024-03-06T19:56:53.787Z,7.07
2024-03-06T20:00:02.902Z,7.05
2024-03-06T20:03:15.343Z,6.94
2024-03-06T20:06:19.246Z,6.83
2024-03-06T20:09:23.502Z,6.59
2024-03-06T20:12:28.025Z,6.47
2024-03-06T20:15:38.640Z,6.42
2024-03-06T20:18:43.028Z,6.49
2024-03-06T20:21:49.156Z,6.40
2024-03-06T20:24:53.023Z,6.29
2024-03-06T20:27:56.554Z,6.33
2024-03-06T20:31:03.090Z,6.50
2024-03-06T20:34:08.320Z,6.57
2024-03-06T20:37:12.272Z,6.42
2024-03-06T20:40:16.015Z,6.31
2024-03-06T20:43:23.103Z,6.26
2024-03-06T20:46:26.724Z,6.28
2024-03-06T20:49:30.645Z,6.06
2024-03-06T20:52:34.091Z,6.03
2024-03-06T20:55:37.977Z,5.85
2024-03-06T20:58:41.226Z,5.93
2024-03-06T21:01:46.917Z,5.95
2024-03-06T21:04:50.245Z,5.82
2024-03-06T21:07:53.806Z,5.71
2024-03-06T21:10:58.059Z,5.60
2024-03-06T21:14:01.920Z,5.50
2024-03-06T21:17:08.807Z,5.64
2024-03-06T21:20:12.994Z,5.53
2024-03-06T21:23:16.005Z,5.53
2024-03-06T21:26:19.577Z,5.46
2024-03-06T21:29:23.120Z,5.51
2024-03-06T21:32:26.627Z,5.38
2024-03-06T21:35:30.241Z,5.23
2024-03-06T21:38:34.015Z,5.19
2024-03-06T21:41:40.342Z,5.18
2024-03-06T21:44:44.318Z,4.75
2024-03-06T21:47:47.240Z,4.67
2024-03-06T21:50:51.919Z,4.55
2024-03-06T21:53:54.857Z,4.58
2024-03-06T21:56:57.915Z,4.63
2024-03-06T22:00:01.261Z,4.66
2024-03-06T22:03:06.342Z,4.53
2024-03-06T22:06:09.840Z,4.46
2024-03-06T22:09:12.837Z,4.39
2024-03-06T22:12:16.411Z,4.22
2024-03-06T22:15:19.642Z,4.14
2024-03-06T22:18:23.409Z,4.25
2024-03-06T22:21:26.227Z,4.22
2024-03-06T22:24:29.648Z,4.16
2024-03-06T22:27:32.509Z,4.06
2024-03-06T22:30:35.812Z,4.03
2024-03-06T22:33:38.725Z,4.06
2024-03-06T22:36:42.810Z,4.07
2024-03-06T22:39:46.538Z,4.05
2024-03-06T22:42:49.885Z,3.95
2024-03-06T22:45:52.732Z,4.08
2024-03-06T22:48:57.365Z,4.01
2024-03-06T22:52:01.054Z,4.01
2024-03-06T22:55:07.904Z,4.00
2024-03-06T22:58:10.975Z,3.90
2024-03-06T23:01:14.075Z,3.73
2024-03-06T23:04:19.217Z,3.55
2024-03-06T23:07:23.390Z,3.59
2024-03-06T23:10:27.301Z,3.60
2024-03-06T23:13:30.668Z,3.52
2024-03-06T23:16:33.942Z,3.66
2024-03-06T23:19:37.055Z,3.78
2024-03-06T23:22:40.056Z,3.72
2024-03-06T23:25:43.618Z,3.59
2024-03-06T23:28:46.409Z,3.77
2024-03-06T23:31:49.454Z,3.71
2024-03-06T23:34:52.226Z,3.68
2024-03-06T23:37:55.421Z,3.77
2024-03-06T23:40:58.304Z,3.72
2024-03-06T23:44:01.820Z,3.67
2024-03-06T23:47:04.870Z,3.58
2024-03-06T23:50:09.292Z,3.49
2024-03-06T23:53:12.585Z,3.53
2024-03-06T23:56:16.585Z,3.54
2024-03-06T23:59:20.325Z,3.47
